createdAt,value
2023-01-29T00:01:59.873Z,65.79
2023-01-29T00:04:26.976Z,66.22
2023-01-29T00:06:54.043Z,66.21
2023-01-29T00:09:21.203Z,65.85
2023-01-29T00:11:48.480Z,66.04
2023-01-29T00:14:15.753Z,66.13
2023-01-29T00:16:42.983Z,66.13
2023-01-29T00:19:10.153Z,66.34
2023-01-29T00:21:37.322Z,66.11
2023-01-29T00:24:04.726Z,66.20
2023-01-29T00:26:32.233Z,66.05
2023-01-29T00:29:00.685Z,65.89
2023-01-29T00:31:28.110Z,65.49
2023-01-29T00:33:55.228Z,65.26
2023-01-29T00:36:23.462Z,65.33
2023-01-29T00:39:00.634Z,64.68
2023-01-29T00:41:49.216Z,64.42
2023-01-29T00:44:35.237Z,64.49
2023-01-29T00:47:03.436Z,64.12
2023-01-29T00:49:38.266Z,64.29
2023-01-29T00:52:24.009Z,64.00
2023-01-29T00:54:55.794Z,64.44
2023-01-29T00:57:25.053Z,63.76
2023-01-29T00:59:52.267Z,64.20
2023-01-29T01:02:38.074Z,63.44
2023-01-29T01:05:07.794Z,63.72
2023-01-29T01:07:34.905Z,63.55
2023-01-29T01:10:20.440Z,63.34
2023-01-29T01:13:08.584Z,63.19
2023-01-29T01:15:38.576Z,63.53
2023-01-29T01:18:06.346Z,63.23
2023-01-29T01:20:36.327Z,63.68
2023-01-29T01:23:04.223Z,63.44
2023-01-29T01:25:31.486Z,63.26
2023-01-29T01:28:02.725Z,63.78
2023-01-29T01:30:29.814Z,63.57
2023-01-29T01:32:56.875Z,63.72
2023-01-29T01:35:24.026Z,63.87
2023-01-29T01:37:51.057Z,63.89
2023-01-29T01:40:23.611Z,63.90
2023-01-29T01:42:59.706Z,63.43
2023-01-29T01:45:36.585Z,63.67
2023-01-29T01:48:26.937Z,63.87
2023-01-29T01:51:05.194Z,63.48
2023-01-29T01:53:42.506Z,63.34
2023-01-29T01:56:21.396Z,63.70
2023-01-29T01:58:56.943Z,63.54
2023-01-29T02:01:29.919Z,63.45
2023-01-29T02:04:48.872Z,63.90
2023-01-29T02:07:34.969Z,64.15
2023-01-29T02:10:20.844Z,64.08
2023-01-29T02:12:48.531Z,63.77
2023-01-29T02:15:15.561Z,63.92
2023-01-29T02:17:42.588Z,64.20
2023-01-29T02:20:26.528Z,64.27
2023-01-29T02:23:54.600Z,64.17
2023-01-29T02:26:49.572Z,64.51
2023-01-29T02:29:34.530Z,64.04
2023-01-29T02:32:22.297Z,64.27
2023-01-29T02:35:26.158Z,64.41
2023-01-29T02:38:23.594Z,64.12
2023-01-29T02:41:01.141Z,64.31
2023-01-29T02:43:53.082Z,64.52
2023-01-29T02:46:51.072Z,64.38
2023-01-29T02:49:50.113Z,64.73
2023-01-29T02:52:30.037Z,64.97
2023-01-29T02:55:12.580Z,65.25
2023-01-29T02:57:45.000Z,65.55
2023-01-29T03:00:27.797Z,65.30
2023-01-29T03:02:56.551Z,65.48
2023-01-29T03:05:44.898Z,65.81
2023-01-29T03:08:18.562Z,65.88
2023-01-29T03:10:57.599Z,65.99
2023-01-29T03:14:07.490Z,66.25
2023-01-29T03:16:46.245Z,66.29
2023-01-29T03:19:34.544Z,66.58
2023-01-29T03:22:04.544Z,66.54
2023-01-29T03:25:00.961Z,66.70
2023-01-29T03:28:17.300Z,66.45
2023-01-29T03:31:26.900Z,66.40
2023-01-29T03:34:35.237Z,66.72
2023-01-29T03:37:38.001Z,66.65
2023-01-29T03:40:07.127Z,66.77
2023-01-29T03:42:51.775Z,66.74
2023-01-29T03:45:31.976Z,66.54
2023-01-29T03:48:22.669Z,66.71
2023-01-29T03:51:08.252Z,66.62
2023-01-29T03:54:07.647Z,66.71
2023-01-29T03:56:50.379Z,67.06
2023-01-29T03:59:41.184Z,66.75
2023-01-29T04:02:16.826Z,66.93
2023-01-29T04:04:50.209Z,67.13
2023-01-29T04:07:24.477Z,67.08
2023-01-29T04:10:19.185Z,67.14
2023-01-29T04:13:09.404Z,67.23
2023-01-29T04:15:47.167Z,67.21
2023-01-29T04:18:14.471Z,66.92
2023-01-29T04:20:42.140Z,67.08
2023-01-29T04:23:23.021Z,66.90
2023-01-29T04:26:08.073Z,67.03
2023-01-29T04:28:59.929Z,66.87
2023-01-29T04:31:40.058Z,67.12
2023-01-29T04:34:29.474Z,67.41
2023-01-29T04:37:02.975Z,67.59
2023-01-29T04:39:46.735Z,67.69
2023-01-29T04:42:32.948Z,67.67
2023-01-29T04:45:06.789Z,67.34
2023-01-29T04:48:12.909Z,67.80
2023-01-29T04:50:56.807Z,67.71
2023-01-29T04:53:43.435Z,67.46
2023-01-29T04:56:41.143Z,67.14
2023-01-29T04:59:14.587Z,67.39
2023-01-29T05:01:42.020Z,67.36
2023-01-29T05:04:14.512Z,67.14
2023-01-29T05:06:43.245Z,67.43
2023-01-29T05:09:12.892Z,67.62
2023-01-29T05:11:40.767Z,67.91
2023-01-29T05:14:11.721Z,67.66
2023-01-29T05:16:51.665Z,67.75
2023-01-29T05:19:18.987Z,68.07
2023-01-29T05:21:49.728Z,67.98
2023-01-29T05:24:23.365Z,68.14
2023-01-29T05:27:12.277Z,67.99
2023-01-29T05:29:47.135Z,68.36
2023-01-29T05:32:15.590Z,68.08
2023-01-29T05:34:42.874Z,68.13
2023-01-29T05:37:10.593Z,68.04
2023-01-29T05:39:37.646Z,68.31
2023-01-29T05:42:04.738Z,68.58
2023-01-29T05:44:31.837Z,68.47
2023-01-29T05:46:58.836Z,68.39
2023-01-29T05:49:26.024Z,68.66
2023-01-29T05:51:53.066Z,68.41
2023-01-29T05:54:20.157Z,68.99
2023-01-29T05:56:47.335Z,68.72
2023-01-29T05:59:16.229Z,68.33
2023-01-29T06:01:43.662Z,68.23
2023-01-29T06:04:10.820Z,68.72
2023-01-29T06:06:37.868Z,68.54
2023-01-29T06:09:04.996Z,69.08
2023-01-29T06:11:31.991Z,69.38
2023-01-29T06:13:58.971Z,68.98
2023-01-29T06:16:26.068Z,69.02
2023-01-29T06:18:53.132Z,69.15
2023-01-29T06:21:20.306Z,68.80
2023-01-29T06:23:47.506Z,69.01
2023-01-29T06:26:16.067Z,68.94
2023-01-29T06:28:45.924Z,68.67
2023-01-29T06:31:35.194Z,69.09
2023-01-29T06:33:59.973Z,68.96
2023-01-29T06:36:27.019Z,69.02
2023-01-29T06:38:54.025Z,69.01
2023-01-29T06:41:25.285Z,69.12
2023-01-29T06:43:52.617Z,68.95
2023-01-29T06:46:20.045Z,68.71
2023-01-29T06:48:47.141Z,68.61
2023-01-29T06:51:14.321Z,68.97
2023-01-29T06:53:42.809Z,68.94
2023-01-29T06:56:10.434Z,68.57
2023-01-29T06:58:38.431Z,68.78
2023-01-29T07:01:08.125Z,68.41
2023-01-29T07:03:35.649Z,68.32
2023-01-29T07:06:03.254Z,68.39
2023-01-29T07:08:30.266Z,68.23
2023-01-29T07:11:01.132Z,68.25
2023-01-29T07:13:28.748Z,68.01
2023-01-29T07:16:02.918Z,68.19
2023-01-29T07:18:31.000Z,68.06
2023-01-29T07:20:58.380Z,67.91
2023-01-29T07:23:25.917Z,67.83
2023-01-29T07:25:52.990Z,67.60
2023-01-29T07:28:20.750Z,67.82
2023-01-29T07:30:47.917Z,67.72
2023-01-29T07:33:14.917Z,67.24
2023-01-29T07:35:43.768Z,67.19
2023-01-29T07:38:12.094Z,67.10
2023-01-29T07:40:39.186Z,66.67
2023-01-29T07:43:09.677Z,66.86
2023-01-29T07:45:39.447Z,66.86
2023-01-29T07:48:10.439Z,66.54
2023-01-29T07:50:37.709Z,66.58
2023-01-29T07:53:04.912Z,66.43
2023-01-29T07:55:33.251Z,66.23
2023-01-29T07:58:03.293Z,66.65
2023-01-29T08:00:32.246Z,66.22
2023-01-29T08:03:05.383Z,66.18
2023-01-29T08:05:32.639Z,66.41
2023-01-29T08:08:06.584Z,66.46
2023-01-29T08:10:36.787Z,66.49
2023-01-29T08:13:05.575Z,66.19
2023-01-29T08:15:33.557Z,66.24
2023-01-29T08:18:02.385Z,65.87
2023-01-29T08:20:29.551Z,65.85
2023-01-29T08:23:06.022Z,66.21
2023-01-29T08:25:33.748Z,65.92
2023-01-29T08:28:01.708Z,65.45
2023-01-29T08:30:32.219Z,65.66
2023-01-29T08:32:59.308Z,65.13
2023-01-29T08:35:27.113Z,65.06
2023-01-29T08:37:59.763Z,65.01
2023-01-29T08:40:31.917Z,64.82
2023-01-29T08:43:06.283Z,64.67
2023-01-29T08:45:42.958Z,64.51
2023-01-29T08:48:10.857Z,64.79
2023-01-29T08:50:38.083Z,64.27
2023-01-29T08:53:08.528Z,65.07
2023-01-29T08:55:37.796Z,65.16
2023-01-29T08:58:07.188Z,65.32
2023-01-29T09:00:35.141Z,64.86
2023-01-29T09:03:03.253Z,64.58
2023-01-29T09:05:30.515Z,64.38
2023-01-29T09:07:58.147Z,64.80
2023-01-29T09:10:25.432Z,65.43
2023-01-29T09:12:52.422Z,66.47
2023-01-29T09:15:19.718Z,66.88
2023-01-29T09:17:46.989Z,66.72
2023-01-29T09:20:14.006Z,67.21
2023-01-29T09:22:41.659Z,67.35
2023-01-29T09:25:09.118Z,67.27
2023-01-29T09:27:36.146Z,67.32
2023-01-29T09:30:05.381Z,67.37
2023-01-29T09:32:53.697Z,67.73
2023-01-29T09:35:23.487Z,67.27
2023-01-29T09:37:52.019Z,67.60
2023-01-29T09:40:30.235Z,67.30
2023-01-29T09:43:12.872Z,67.65
2023-01-29T09:45:51.661Z,68.04
2023-01-29T09:48:19.637Z,67.96
2023-01-29T09:50:51.596Z,68.13
2023-01-29T09:53:42.943Z,68.29
2023-01-29T09:56:20.352Z,68.72
2023-01-29T09:58:48.051Z,68.80
2023-01-29T10:02:07.327Z,68.88
2023-01-29T10:05:21.350Z,69.43
2023-01-29T10:08:13.749Z,69.89
2023-01-29T10:11:16.923Z,70.14
2023-01-29T10:14:03.373Z,70.26
2023-01-29T10:16:51.461Z,70.83
2023-01-29T10:19:45.164Z,71.04
2023-01-29T10:22:53.744Z,71.81
2023-01-29T10:25:22.988Z,72.09
2023-01-29T10:27:58.156Z,71.64
2023-01-29T10:30:32.405Z,72.44
2023-01-29T10:33:04.738Z,72.36
2023-01-29T10:35:50.352Z,72.85
2023-01-29T10:38:38.860Z,73.19
2023-01-29T10:41:11.614Z,72.94
2023-01-29T10:44:15.587Z,72.79
2023-01-29T10:47:11.227Z,72.63
2023-01-29T10:49:41.017Z,72.02
2023-01-29T10:53:09.204Z,72.74
2023-01-29T10:55:57.001Z,72.01
2023-01-29T10:58:29.866Z,71.96
2023-01-29T11:00:57.184Z,71.92
2023-01-29T11:03:29.354Z,72.18
2023-01-29T11:06:13.070Z,72.32
2023-01-29T11:08:48.380Z,72.62
2023-01-29T11:11:22.361Z,72.28
2023-01-29T11:14:02.862Z,72.25
2023-01-29T11:16:33.293Z,72.15
2023-01-29T11:19:01.667Z,72.22
2023-01-29T11:21:29.841Z,72.20
2023-01-29T11:24:18.707Z,72.12
2023-01-29T11:26:49.529Z,72.58
2023-01-29T11:29:43.087Z,72.55
2023-01-29T11:32:32.740Z,72.11
2023-01-29T11:35:22.398Z,72.63
2023-01-29T11:37:49.597Z,72.92
2023-01-29T11:40:27.843Z,72.91
2023-01-29T11:42:54.838Z,73.17
2023-01-29T11:45:25.293Z,73.62
2023-01-29T11:47:57.291Z,72.94
2023-01-29T11:50:28.895Z,73.37
2023-01-29T11:52:58.352Z,73.93
2023-01-29T11:55:48.246Z,74.46
2023-01-29T11:58:27.185Z,74.65
2023-01-29T12:00:55.608Z,74.22
2023-01-29T12:03:53.182Z,74.49
2023-01-29T12:06:31.961Z,74.85
2023-01-29T12:09:02.296Z,75.02
2023-01-29T12:11:35.276Z,74.37
2023-01-29T12:14:05.796Z,74.95
2023-01-29T12:16:59.791Z,74.54
2023-01-29T12:19:48.953Z,74.59
2023-01-29T12:22:44.031Z,74.70
2023-01-29T12:25:39.403Z,75.07
2023-01-29T12:28:24.711Z,74.88
2023-01-29T12:31:23.997Z,74.96
2023-01-29T12:34:20.454Z,74.87
2023-01-29T12:37:12.346Z,75.22
2023-01-29T12:39:39.354Z,74.78
2023-01-29T12:42:19.163Z,74.91
2023-01-29T12:45:01.606Z,75.51
2023-01-29T12:47:46.999Z,75.82
2023-01-29T12:50:29.303Z,75.66
2023-01-29T12:53:34.550Z,74.86
2023-01-29T12:56:29.334Z,75.14
2023-01-29T12:58:59.174Z,75.60
2023-01-29T13:01:38.028Z,75.89
2023-01-29T13:04:14.406Z,75.97
2023-01-29T13:06:54.236Z,76.25
2023-01-29T13:09:28.372Z,75.40
2023-01-29T13:12:11.906Z,75.84
2023-01-29T13:15:05.654Z,76.08
2023-01-29T13:17:47.620Z,76.66
2023-01-29T13:20:28.003Z,77.14
2023-01-29T13:23:15.404Z,77.34
2023-01-29T13:25:43.232Z,77.91
2023-01-29T13:28:25.605Z,78.00
2023-01-29T13:31:12.282Z,78.53
2023-01-29T13:33:43.273Z,78.47
2023-01-29T13:36:28.712Z,78.58
2023-01-29T13:39:16.232Z,79.11
2023-01-29T13:41:43.872Z,78.76
2023-01-29T13:44:36.697Z,79.37
2023-01-29T13:47:11.550Z,79.77
2023-01-29T13:50:06.678Z,79.96
2023-01-29T13:52:44.601Z,80.69
2023-01-29T13:55:14.351Z,80.73
2023-01-29T13:57:44.349Z,81.42
2023-01-29T14:00:34.409Z,81.48
2023-01-29T14:03:01.318Z,81.61
2023-01-29T14:05:31.305Z,81.44
2023-01-29T14:08:03.603Z,81.42
2023-01-29T14:10:36.806Z,81.45
2023-01-29T14:13:03.664Z,81.20
2023-01-29T14:15:36.343Z,81.50
2023-01-29T14:18:09.041Z,81.38
2023-01-29T14:20:47.965Z,82.17
2023-01-29T14:23:42.079Z,82.25
2023-01-29T14:26:31.748Z,81.36
2023-01-29T14:28:58.738Z,81.35
2023-01-29T14:31:38.964Z,82.00
2023-01-29T14:34:28.257Z,81.80
2023-01-29T14:37:27.749Z,82.10
2023-01-29T14:40:20.695Z,81.96
2023-01-29T14:42:57.801Z,82.44
2023-01-29T14:45:41.950Z,82.61
2023-01-29T14:48:11.763Z,82.67
2023-01-29T14:50:50.944Z,82.55
2023-01-29T14:53:45.558Z,82.30
2023-01-29T14:56:36.617Z,82.31
2023-01-29T14:59:16.651Z,82.03
2023-01-29T15:01:58.770Z,82.43
2023-01-29T15:04:40.466Z,82.65
2023-01-29T15:07:10.477Z,83.02
2023-01-29T15:09:48.008Z,82.93
2023-01-29T15:12:36.428Z,82.88
2023-01-29T15:15:49.605Z,83.05
2023-01-29T15:18:42.397Z,83.59
2023-01-29T15:21:17.703Z,83.71
2023-01-29T15:23:48.399Z,83.58
2023-01-29T15:26:26.961Z,83.62
2023-01-29T15:29:04.937Z,83.95
2023-01-29T15:31:33.124Z,84.39
2023-01-29T15:34:07.255Z,84.02
2023-01-29T15:36:36.632Z,84.51
2023-01-29T15:39:19.023Z,85.00
2023-01-29T15:41:47.237Z,84.83
2023-01-29T15:44:18.714Z,85.76
2023-01-29T15:46:57.131Z,86.02
2023-01-29T15:49:32.042Z,85.78
2023-01-29T15:52:03.601Z,86.20
2023-01-29T15:54:35.454Z,86.47
2023-01-29T15:57:03.581Z,86.95
2023-01-29T15:59:35.538Z,86.87
2023-01-29T16:02:38.492Z,87.29
2023-01-29T16:05:13.766Z,87.10
2023-01-29T16:07:42.261Z,87.65
2023-01-29T16:10:27.316Z,87.43
2023-01-29T16:12:55.619Z,87.70
2023-01-29T16:15:35.962Z,88.17
2023-01-29T16:18:20.677Z,88.02
2023-01-29T16:20:53.754Z,88.15
2023-01-29T16:23:29.563Z,88.31
2023-01-29T16:26:05.260Z,88.53
2023-01-29T16:28:32.752Z,88.20
2023-01-29T16:31:03.861Z,88.24
2023-01-29T16:33:38.333Z,88.47
2023-01-29T16:36:23.906Z,88.45
2023-01-29T16:39:01.734Z,89.20
2023-01-29T16:41:38.285Z,88.70
2023-01-29T16:44:35.207Z,88.52
2023-01-29T16:47:14.451Z,88.62
2023-01-29T16:49:48.762Z,88.84
2023-01-29T16:52:25.361Z,89.37
2023-01-29T16:55:00.688Z,89.40
2023-01-29T16:57:33.300Z,89.43
2023-01-29T17:00:06.475Z,90.02
2023-01-29T17:02:39.098Z,90.61
2023-01-29T17:05:16.842Z,90.33
2023-01-29T17:07:46.476Z,90.43
2023-01-29T17:10:21.554Z,90.23
2023-01-29T17:13:01.003Z,90.42
2023-01-29T17:15:43.134Z,90.48
2023-01-29T17:18:21.477Z,90.30
2023-01-29T17:20:50.465Z,90.14
2023-01-29T17:23:17.533Z,90.48
2023-01-29T17:25:45.599Z,90.66
2023-01-29T17:28:15.667Z,90.64
2023-01-29T17:30:44.916Z,90.39
2023-01-29T17:33:22.848Z,90.22
2023-01-29T17:35:50.401Z,90.27
2023-01-29T17:38:25.850Z,90.63
2023-01-29T17:41:07.574Z,90.14
2023-01-29T17:43:35.107Z,90.26
2023-01-29T17:46:02.267Z,90.19
2023-01-29T17:48:31.188Z,90.05
2023-01-29T17:51:03.830Z,90.09
2023-01-29T17:53:44.904Z,90.46
2023-01-29T17:56:21.439Z,90.06
2023-01-29T17:58:48.473Z,90.27
2023-01-29T18:01:15.604Z,90.14
2023-01-29T18:03:42.695Z,90.12
2023-01-29T18:06:12.706Z,89.72
2023-01-29T18:08:40.307Z,89.87
2023-01-29T18:11:09.888Z,89.08
2023-01-29T18:13:37.228Z,89.66
2023-01-29T18:16:04.424Z,89.13
2023-01-29T18:18:31.498Z,88.62
2023-01-29T18:20:58.529Z,89.48
2023-01-29T18:23:25.593Z,89.12
2023-01-29T18:25:54.721Z,88.99
2023-01-29T18:28:21.709Z,88.76
2023-01-29T18:30:48.726Z,89.18
2023-01-29T18:33:16.951Z,88.88
2023-01-29T18:35:45.739Z,88.92
2023-01-29T18:38:12.760Z,88.58
2023-01-29T18:40:39.974Z,89.33
2023-01-29T18:43:07.506Z,89.68
2023-01-29T18:45:34.544Z,89.24
2023-01-29T18:48:01.715Z,89.60
2023-01-29T18:50:28.695Z,89.53
2023-01-29T18:52:56.442Z,89.50
2023-01-29T18:55:24.314Z,89.79
2023-01-29T18:58:28.186Z,90.55
2023-01-29T19:00:42.525Z,90.26
2023-01-29T19:03:11.207Z,90.29
2023-01-29T19:05:38.343Z,90.45
2023-01-29T19:08:05.885Z,89.92
2023-01-29T19:10:33.603Z,90.26
2023-01-29T19:13:00.665Z,90.21
2023-01-29T19:15:28.079Z,90.43
2023-01-29T19:17:56.082Z,90.17
2023-01-29T19:20:23.309Z,89.93
2023-01-29T19:22:50.401Z,89.86
2023-01-29T19:25:19.604Z,90.14
2023-01-29T19:27:46.884Z,90.69
2023-01-29T19:30:14.167Z,90.38
2023-01-29T19:32:41.471Z,89.53
2023-01-29T19:35:08.587Z,89.88
2023-01-29T19:37:35.814Z,89.94
2023-01-29T19:40:02.901Z,90.11
2023-01-29T19:42:29.981Z,89.84
2023-01-29T19:44:56.959Z,89.00
2023-01-29T19:47:24.057Z,89.46
2023-01-29T19:49:51.174Z,89.94
2023-01-29T19:52:50.212Z,89.96
2023-01-29T19:55:19.198Z,89.86
2023-01-29T19:57:47.235Z,89.88
2023-01-29T20:00:15.570Z,89.77
2023-01-29T20:02:42.651Z,89.55
2023-01-29T20:05:12.067Z,89.53
2023-01-29T20:07:42.605Z,89.66
2023-01-29T20:10:16.958Z,89.49
2023-01-29T20:12:45.699Z,89.91
2023-01-29T20:15:14.738Z,90.20
2023-01-29T20:17:41.792Z,90.07
2023-01-29T20:20:11.582Z,90.02
2023-01-29T20:22:38.602Z,89.66
2023-01-29T20:25:06.144Z,89.54
2023-01-29T20:27:33.156Z,90.09
2023-01-29T20:30:00.183Z,90.38
2023-01-29T20:32:27.221Z,89.99
2023-01-29T20:34:54.284Z,90.52
2023-01-29T20:37:21.299Z,90.38
2023-01-29T20:39:48.419Z,90.58
2023-01-29T20:42:15.433Z,90.68
2023-01-29T20:44:42.488Z,90.95
2023-01-29T20:47:09.658Z,90.61
2023-01-29T20:49:36.707Z,89.80
2023-01-29T20:52:03.762Z,89.50
2023-01-29T20:54:33.239Z,88.80
2023-01-29T20:57:00.541Z,88.46
2023-01-29T20:59:29.213Z,88.35
2023-01-29T21:01:56.340Z,88.21
2023-01-29T21:04:23.509Z,87.97
2023-01-29T21:06:50.574Z,88.55
2023-01-29T21:09:17.587Z,88.54
2023-01-29T21:11:45.140Z,88.42
2023-01-29T21:14:12.580Z,89.17
2023-01-29T21:16:39.985Z,88.74
2023-01-29T21:19:07.103Z,89.03
2023-01-29T21:21:34.736Z,88.76
2023-01-29T21:24:01.763Z,89.01
2023-01-29T21:26:28.850Z,88.95
2023-01-29T21:28:55.859Z,89.39
2023-01-29T21:31:23.058Z,89.11
2023-01-29T21:33:50.266Z,88.82
2023-01-29T21:36:17.312Z,88.71
2023-01-29T21:38:44.438Z,88.73
2023-01-29T21:41:11.469Z,88.51
2023-01-29T21:43:39.104Z,89.06
2023-01-29T21:46:17.221Z,89.10
2023-01-29T21:48:44.317Z,89.74
2023-01-29T21:51:11.327Z,90.02
2023-01-29T21:53:38.476Z,90.18
2023-01-29T21:56:06.217Z,90.46
2023-01-29T21:58:33.397Z,89.80
2023-01-29T22:01:34.538Z,89.60
2023-01-29T22:03:47.783Z,89.74
2023-01-29T22:06:15.550Z,89.79
2023-01-29T22:08:42.711Z,90.02
2023-01-29T22:11:10.410Z,90.06
2023-01-29T22:13:37.681Z,90.69
2023-01-29T22:16:06.062Z,90.54
2023-01-29T22:18:33.702Z,90.71
2023-01-29T22:21:04.144Z,90.86
2023-01-29T22:23:32.361Z,90.76
2023-01-29T22:26:04.789Z,90.09
2023-01-29T22:28:31.796Z,90.71
2023-01-29T22:31:05.601Z,90.83
2023-01-29T22:33:33.554Z,90.75
2023-01-29T22:36:01.297Z,91.26
2023-01-29T22:38:28.905Z,91.08
2023-01-29T22:40:57.724Z,91.38
2023-01-29T22:43:26.074Z,91.31
2023-01-29T22:45:53.214Z,91.33
2023-01-29T22:48:22.221Z,91.73
2023-01-29T22:51:09.421Z,91.64
2023-01-29T22:53:50.473Z,91.38
2023-01-29T22:56:19.270Z,91.64
2023-01-29T22:58:57.990Z,91.91
2023-01-29T23:01:29.207Z,91.23
2023-01-29T23:03:56.537Z,91.21
2023-01-29T23:06:24.077Z,91.25
2023-01-29T23:08:51.898Z,91.60
2023-01-29T23:11:21.498Z,91.45
2023-01-29T23:13:52.153Z,91.62
2023-01-29T23:16:21.974Z,91.49
2023-01-29T23:18:54.580Z,91.24
2023-01-29T23:21:25.096Z,91.19
2023-01-29T23:23:54.252Z,90.98
2023-01-29T23:26:40.161Z,90.81
2023-01-29T23:29:07.192Z,90.77
2023-01-29T23:31:34.182Z,91.00
2023-01-29T23:34:01.390Z,91.18
2023-01-29T23:36:28.570Z,91.13
2023-01-29T23:38:55.665Z,91.30
2023-01-29T23:41:23.026Z,91.47
2023-01-29T23:43:50.234Z,91.59
2023-01-29T23:46:17.248Z,91.59
2023-01-29T23:48:44.301Z,91.26
2023-01-29T23:51:11.427Z,91.16
2023-01-29T23:53:38.838Z,91.13
2023-01-29T23:56:07.016Z,91.12
2023-01-29T23:58:34.212Z,91.08
